Time;durP1;ratioP1;P1;durP2;ratioP2;P2;SDS_P1;SDS_P2;PMS_P1;PMS_P2;Temp;Humidity;BMP_temperature;BMP_pressure;BME280_temperature;BME280_humidity;BME280_pressure;Samples;Min_cycle;Max_cycle;Signal;HPM_P1;HPM_P2
2022/08/28 00:00:14;;;;;;;11.57;9.88;;;14.30;99.90;;;;;;4898898;29;20119;-64
2022/08/28 00:02:42;;;;;;;10.13;9.07;;;14.40;99.90;;;;;;4898603;29;20123;-68
2022/08/28 00:05:10;;;;;;;11.45;10.35;;;14.40;99.90;;;;;;4898721;29;20482;-69
2022/08/28 00:07:38;;;;;;;10.13;8.68;;;14.70;99.90;;;;;;4898619;29;20035;-67
2022/08/28 00:10:07;;;;;;;8.95;7.47;;;14.70;99.90;;;;;;4898971;29;20024;-65
2022/08/28 00:12:36;;;;;;;10.13;8.25;;;14.80;99.90;;;;;;4898351;29;20025;-69
2022/08/28 00:15:08;;;;;;;9.68;6.65;;;14.90;99.90;;;;;;4898780;29;20052;-64
2022/08/28 00:17:35;;;;;;;11.32;9.48;;;15.10;99.90;;;;;;4898384;29;20095;-66
2022/08/28 00:20:04;;;;;;;9.77;7.65;;;15.20;99.90;;;;;;4898421;29;20168;-70
2022/08/28 00:22:31;;;;;;;9.35;6.38;;;15.30;99.90;;;;;;4897924;29;20504;-67
2022/08/28 00:24:59;;;;;;;6.30;5.25;;;15.40;99.90;;;;;;4898190;29;20028;-68
2022/08/28 00:30:11;;;;;;;5.20;4.60;;;15.70;99.90;;;;;;4898821;29;20407;-67
2022/08/28 00:32:39;;;;;;;5.93;3.72;;;16.00;99.90;;;;;;4897601;29;20053;-69
2022/08/28 00:35:06;;;;;;;5.53;3.90;;;16.00;99.90;;;;;;4897814;29;20028;-66
2022/08/28 00:37:34;;;;;;;6.70;3.95;;;16.10;99.90;;;;;;4898167;29;20371;-67
2022/08/28 00:40:01;;;;;;;7.15;3.90;;;16.20;99.90;;;;;;4897696;29;20040;-66
2022/08/28 00:42:28;;;;;;;5.80;3.70;;;16.30;99.90;;;;;;4897168;29;20097;-65
2022/08/28 00:44:56;;;;;;;6.43;3.72;;;16.50;99.90;;;;;;4897367;29;20115;-66
2022/08/28 00:47:25;;;;;;;5.72;3.17;;;16.60;99.90;;;;;;4898215;29;20085;-66
2022/08/28 00:49:55;;;;;;;11.88;3.65;;;16.80;99.90;;;;;;4898009;29;20088;-68
2022/08/28 00:52:25;;;;;;;8.93;3.00;;;16.80;99.90;;;;;;4897829;29;20064;-67
2022/08/28 00:55:09;;;;;;;7.15;3.58;;;16.90;99.90;;;;;;4897609;29;20108;-71
2022/08/28 00:57:57;;;;;;;4.45;2.63;;;17.10;99.90;;;;;;4897583;29;20025;-70
2022/08/28 01:00:34;;;;;;;5.82;3.00;;;17.30;99.90;;;;;;4897734;29;20040;-69
2022/08/28 01:03:03;;;;;;;4.40;2.72;;;17.50;99.90;;;;;;4897950;29;20029;-66
2022/08/28 01:05:31;;;;;;;5.32;3.05;;;17.60;99.90;;;;;;4897718;29;20051;-66
2022/08/28 01:08:00;;;;;;;3.65;2.17;;;17.80;99.90;;;;;;4897657;29;20041;-65
2022/08/28 01:10:30;;;;;;;7.40;1.98;;;17.90;99.90;;;;;;4897498;29;20422;-68
2022/08/28 01:12:59;;;;;;;2.90;1.70;;;17.90;99.90;;;;;;4897451;29;20028;-68
2022/08/28 01:15:30;;;;;;;5.15;2.30;;;18.00;99.90;;;;;;4897659;29;20020;-68
2022/08/28 01:18:02;;;;;;;3.58;1.98;;;18.20;99.90;;;;;;4897561;29;20032;-70
2022/08/28 01:20:33;;;;;;;4.90;1.88;;;18.40;99.90;;;;;;4896033;29;20518;-68
2022/08/28 01:23:09;;;;;;;2.83;1.40;;;18.60;99.90;;;;;;4896816;29;20089;-68
2022/08/28 01:25:38;;;;;;;3.67;1.67;;;18.70;99.90;;;;;;4897143;29;20020;-67
2022/08/28 01:28:11;;;;;;;4.13;1.90;;;18.70;99.90;;;;;;4896784;29;20033;-67
2022/08/28 01:30:41;;;;;;;5.20;1.55;;;18.90;99.90;;;;;;4897329;29;20038;-66
2022/08/28 01:33:09;;;;;;;4.38;1.40;;;19.10;99.90;;;;;;4896975;29;20021;-66
2022/08/28 01:35:40;;;;;;;2.42;1.35;;;19.20;99.90;;;;;;4897288;29;20079;-66
2022/08/28 01:38:07;;;;;;;4.72;1.48;;;19.30;99.90;;;;;;4897768;29;20037;-66
2022/08/28 01:40:41;;;;;;;2.97;1.05;;;19.50;99.90;;;;;;4896918;29;20048;-66
2022/08/28 01:43:20;;;;;;;3.85;1.23;;;19.70;99.90;;;;;;4896118;29;20101;-66
2022/08/28 01:45:54;;;;;;;2.92;1.25;;;19.80;99.90;;;;;;4896867;29;20021;-67
2022/08/28 01:48:24;;;;;;;3.03;1.35;;;19.90;99.90;;;;;;4897335;29;20041;-68
2022/08/28 01:50:52;;;;;;;1.75;1.02;;;20.00;99.90;;;;;;4911779;29;20035;-68
2022/08/28 01:53:25;;;;;;;1.48;0.95;;;20.10;99.90;;;;;;4897107;29;20032;-68
2022/08/28 01:55:54;;;;;;;2.95;1.27;;;20.00;99.90;;;;;;4896866;29;20032;-70
2022/08/28 01:58:23;;;;;;;1.85;0.82;;;20.00;99.90;;;;;;4896494;29;20490;-69
2022/08/28 02:00:52;;;;;;;1.95;1.08;;;20.10;99.90;;;;;;4896283;29;20036;-69
2022/08/28 02:03:20;;;;;;;1.48;0.70;;;20.30;99.90;;;;;;4896057;29;20084;-69
2022/08/28 02:05:47;;;;;;;2.90;1.83;;;20.30;99.30;;;;;;4896499;29;20035;-69
2022/08/28 02:08:15;;;;;;;3.58;0.70;;;20.50;99.50;;;;;;4896311;29;20108;-69
2022/08/28 02:10:43;;;;;;;3.80;1.13;;;20.60;99.20;;;;;;4895547;29;20020;-69
2022/08/28 02:13:12;;;;;;;1.95;0.70;;;20.70;99.10;;;;;;4894181;29;20534;-69
2022/08/28 02:15:40;;;;;;;3.72;1.10;;;20.70;99.60;;;;;;4894956;29;20035;-70
2022/08/28 02:18:08;;;;;;;2.25;0.95;;;20.90;99.30;;;;;;4896293;29;20020;-70
2022/08/28 02:20:35;;;;;;;2.67;1.30;;;20.60;98.30;;;;;;4895495;29;20025;-70
2022/08/28 02:23:02;;;;;;;2.75;0.80;;;20.60;98.70;;;;;;4895883;29;20037;-69
2022/08/28 02:25:30;;;;;;;3.03;0.60;;;20.70;97.80;;;;;;4896416;29;20017;-69
2022/08/28 02:27:58;;;;;;;4.18;0.82;;;20.80;97.30;;;;;;4896882;29;20039;-69
2022/08/28 02:30:25;;;;;;;2.50;0.80;;;20.90;98.80;;;;;;4896647;29;20124;-69
2022/08/28 02:32:53;;;;;;;2.78;0.80;;;20.90;97.60;;;;;;4896657;29;20027;-70
2022/08/28 02:35:22;;;;;;;2.10;0.75;;;21.00;97.60;;;;;;4896502;29;20525;-69
2022/08/28 02:37:50;;;;;;;2.65;0.60;;;21.30;97.00;;;;;;4896461;29;20017;-68
2022/08/28 02:40:19;;;;;;;1.52;0.68;;;21.50;95.90;;;;;;4896735;29;20021;-69
2022/08/28 02:42:46;;;;;;;2.58;1.02;;;21.80;96.00;;;;;;4896503;29;20068;-69
2022/08/28 02:45:15;;;;;;;4.80;0.70;;;22.00;95.20;;;;;;4896756;29;20036;-69
2022/08/28 02:47:44;;;;;;;1.58;0.50;;;22.20;95.30;;;;;;4896923;29;20059;-69
2022/08/28 02:50:14;;;;;;;2.33;0.70;;;22.60;94.70;;;;;;4896859;29;20025;-68
2022/08/28 02:52:42;;;;;;;2.45;1.10;;;23.10;93.80;;;;;;4896416;29;20033;-68
2022/08/28 02:55:11;;;;;;;3.65;0.80;;;23.40;92.70;;;;;;4896517;29;20084;-69
2022/08/28 02:57:39;;;;;;;2.03;0.60;;;23.60;92.30;;;;;;4896370;29;20021;-69
2022/08/28 03:00:14;;;;;;;1.73;0.70;;;24.30;92.20;;;;;;4896551;29;20047;-70
2022/08/28 03:02:44;;;;;;;1.42;0.60;;;24.50;90.60;;;;;;4896471;29;20068;-69
2022/08/28 03:05:13;;;;;;;2.35;0.52;;;24.70;90.50;;;;;;4896766;29;20024;-69
2022/08/28 03:07:41;;;;;;;1.65;0.90;;;24.90;88.40;;;;;;4899260;29;20518;-70
2022/08/28 03:10:10;;;;;;;3.45;0.73;;;25.40;88.60;;;;;;4900599;29;20366;-70
2022/08/28 03:12:38;;;;;;;2.22;0.70;;;25.80;88.10;;;;;;4900137;29;20116;-70
2022/08/28 03:15:06;;;;;;;1.95;0.60;;;25.80;86.80;;;;;;4900246;29;20025;-69
2022/08/28 03:17:35;;;;;;;3.88;0.75;;;25.60;87.00;;;;;;4900012;29;20114;-69
2022/08/28 03:20:05;;;;;;;2.78;1.13;;;25.70;87.40;;;;;;4900250;29;20099;-70
2022/08/28 03:25:18;;;;;;;2.13;0.80;;;26.00;84.90;;;;;;4899892;29;20104;-69
2022/08/28 03:27:45;;;;;;;4.90;1.17;;;26.20;84.60;;;;;;4899952;29;20028;-69
2022/08/28 03:30:13;;;;;;;4.40;1.05;;;26.00;85.80;;;;;;4900200;29;20026;-70
2022/08/28 03:32:40;;;;;;;2.88;0.70;;;26.40;84.60;;;;;;4898629;29;20028;-71
2022/08/28 03:35:08;;;;;;;3.38;0.90;;;26.30;84.20;;;;;;4898005;29;20013;-71
2022/08/28 03:37:36;;;;;;;2.45;0.95;;;26.00;84.10;;;;;;4898226;29;20080;-71
2022/08/28 03:40:04;;;;;;;4.07;0.75;;;26.40;83.70;;;;;;4896076;29;20367;-71
2022/08/28 03:42:33;;;;;;;2.13;0.60;;;26.40;82.90;;;;;;4898012;29;20040;-69
2022/08/28 03:45:00;;;;;;;1.60;0.50;;;26.40;82.90;;;;;;4899255;29;20028;-70
2022/08/28 03:47:27;;;;;;;3.58;0.68;;;26.00;84.20;;;;;;4898075;29;20028;-69
2022/08/28 03:49:56;;;;;;;1.75;0.60;;;25.90;83.40;;;;;;4899136;29;20016;-68
2022/08/28 03:52:24;;;;;;;1.40;0.60;;;25.70;84.50;;;;;;4899336;29;20035;-69
2022/08/28 03:54:52;;;;;;;3.65;0.60;;;25.80;84.10;;;;;;4899079;29;20057;-70
2022/08/28 03:57:21;;;;;;;2.55;0.77;;;25.80;85.30;;;;;;4898965;29;20033;-69
2022/08/28 03:59:51;;;;;;;3.28;0.90;;;26.10;82.30;;;;;;4898836;29;20049;-71
2022/08/28 04:02:19;;;;;;;3.15;0.70;;;25.90;83.10;;;;;;4898844;29;20025;-71
2022/08/28 04:04:48;;;;;;;2.10;0.60;;;25.90;82.70;;;;;;4899336;29;20173;-70
2022/08/28 04:07:17;;;;;;;2.90;1.10;;;25.90;83.10;;;;;;4898959;29;20496;-71
2022/08/28 04:09:45;;;;;;;4.45;0.90;;;26.20;82.50;;;;;;4898673;29;20033;-70
2022/08/28 04:12:13;;;;;;;2.47;0.70;;;26.20;83.20;;;;;;4898650;29;20009;-71
2022/08/28 04:14:40;;;;;;;3.40;0.80;;;26.60;82.80;;;;;;4898740;29;20434;-71
2022/08/28 04:17:08;;;;;;;3.60;0.57;;;26.60;82.10;;;;;;4898721;29;20139;-70
2022/08/28 04:19:36;;;;;;;3.58;0.70;;;26.90;80.60;;;;;;4898725;29;20067;-69
2022/08/28 04:22:04;;;;;;;4.43;0.70;;;26.80;81.80;;;;;;4897382;29;20029;-69
2022/08/28 04:24:32;;;;;;;2.47;0.90;;;26.70;81.60;;;;;;4898834;29;20097;-69
2022/08/28 04:26:59;;;;;;;2.42;1.02;;;26.50;82.40;;;;;;4897811;29;20080;-71
2022/08/28 04:29:26;;;;;;;2.22;0.98;;;26.00;82.60;;;;;;4898645;29;20470;-71
2022/08/28 04:31:55;;;;;;;3.72;0.90;;;25.80;83.00;;;;;;4897292;29;20020;-70
2022/08/28 04:34:22;;;;;;;1.73;0.70;;;25.40;83.80;;;;;;4897872;29;20438;-70
2022/08/28 04:36:53;;;;;;;1.67;0.70;;;25.30;84.90;;;;;;4898415;29;20032;-69
2022/08/28 04:39:20;;;;;;;2.65;0.85;;;25.10;85.10;;;;;;4898496;29;20059;-69
2022/08/28 04:41:49;;;;;;;3.83;0.98;;;25.10;85.90;;;;;;4898071;29;20035;-69
2022/08/28 04:44:16;;;;;;;2.58;0.80;;;25.10;85.50;;;;;;4898162;29;20116;-69
2022/08/28 04:46:43;;;;;;;2.85;0.75;;;25.00;85.80;;;;;;4897724;29;20460;-70
2022/08/28 04:49:12;;;;;;;4.07;0.85;;;24.50;87.20;;;;;;4897981;29;20061;-70
2022/08/28 04:51:40;;;;;;;3.75;0.80;;;24.30;87.90;;;;;;4897651;29;20054;-71
2022/08/28 04:54:09;;;;;;;4.55;1.08;;;24.40;88.40;;;;;;4897985;29;20028;-69
2022/08/28 04:56:38;;;;;;;3.63;0.98;;;24.60;87.70;;;;;;4898116;29;20092;-69
2022/08/28 04:59:06;;;;;;;2.58;1.30;;;24.80;87.40;;;;;;4898098;29;20051;-68
2022/08/28 05:01:33;;;;;;;4.70;1.17;;;24.90;87.40;;;;;;4897692;29;20029;-67
2022/08/28 05:04:04;;;;;;;1.80;0.60;;;25.40;85.40;;;;;;4896614;29;20057;-67
2022/08/28 05:06:33;;;;;;;5.60;0.95;;;25.70;84.40;;;;;;4897249;29;20032;-68
2022/08/28 05:09:02;;;;;;;1.48;0.63;;;26.10;83.60;;;;;;4898012;29;20132;-68
2022/08/28 05:11:30;;;;;;;2.05;0.98;;;26.50;83.20;;;;;;4896893;29;20029;-68
2022/08/28 05:13:58;;;;;;;4.15;1.10;;;27.10;82.20;;;;;;4894684;29;20048;-67
2022/08/28 05:16:26;;;;;;;4.38;0.80;;;27.30;81.60;;;;;;4895935;29;20055;-68
2022/08/28 05:18:53;;;;;;;2.53;0.93;;;27.00;81.30;;;;;;4896406;29;20021;-67
2022/08/28 05:21:22;;;;;;;1.95;0.77;;;26.30;82.90;;;;;;4895963;29;20035;-68
2022/08/28 05:23:53;;;;;;;2.47;0.88;;;25.30;83.80;;;;;;4896355;29;20509;-69
2022/08/28 05:26:22;;;;;;;3.60;1.23;;;24.30;86.50;;;;;;4894773;29;20111;-71
2022/08/28 05:28:50;;;;;;;3.90;0.95;;;23.50;89.50;;;;;;4896988;29;20116;-69
2022/08/28 05:31:21;;;;;;;4.13;0.80;;;22.60;91.00;;;;;;4896671;29;20032;-71
2022/08/28 05:33:51;;;;;;;5.05;0.88;;;22.10;91.60;;;;;;4896801;29;20482;-69
2022/08/28 05:36:20;;;;;;;2.67;1.02;;;21.80;92.00;;;;;;4895138;29;20429;-71
2022/08/28 05:38:48;;;;;;;4.18;0.73;;;21.50;92.50;;;;;;4894890;29;20657;-72
2022/08/28 05:41:21;;;;;;;2.45;0.88;;;21.10;93.20;;;;;;4893419;29;20033;-71
2022/08/28 05:43:50;;;;;;;2.60;0.95;;;20.90;94.20;;;;;;4894407;29;20029;-69
2022/08/28 05:46:17;;;;;;;5.25;1.25;;;20.80;94.70;;;;;;4894892;29;20024;-68
2022/08/28 05:48:44;;;;;;;5.32;1.02;;;20.60;95.20;;;;;;4894544;29;20101;-68
2022/08/28 05:51:18;;;;;;;4.38;1.13;;;20.60;96.00;;;;;;4894017;29;20016;-69
2022/08/28 05:53:48;;;;;;;5.50;1.05;;;20.40;95.50;;;;;;4894033;29;20481;-68
2022/08/28 05:56:20;;;;;;;2.03;0.98;;;20.40;96.20;;;;;;4894331;29;20045;-67
2022/08/28 05:58:47;;;;;;;2.67;2.10;;;20.50;96.40;;;;;;4894612;29;20066;-69
2022/08/28 06:01:19;;;;;;;5.30;1.17;;;20.80;96.50;;;;;;4895284;29;20021;-70
2022/08/28 06:03:57;;;;;;;2.90;1.13;;;21.50;95.60;;;;;;4896025;29;20037;-67
2022/08/28 06:06:28;;;;;;;3.22;0.95;;;22.20;94.90;;;;;;4896769;29;20029;-71
2022/08/28 06:09:04;;;;;;;2.28;1.08;;;23.20;93.20;;;;;;4896810;29;20033;-70
2022/08/28 06:11:32;;;;;;;3.20;0.80;;;23.60;92.70;;;;;;4896777;29;20024;-69
2022/08/28 06:14:02;;;;;;;3.70;0.80;;;24.10;91.60;;;;;;4896682;29;20035;-71
2022/08/28 06:16:31;;;;;;;2.95;0.70;;;24.60;91.20;;;;;;4896849;29;20025;-70
2022/08/28 06:18:59;;;;;;;4.13;0.85;;;24.70;90.50;;;;;;4897159;29;20024;-70
2022/08/28 06:21:26;;;;;;;6.72;1.00;;;24.80;90.30;;;;;;4896799;29;20052;-70
2022/08/28 06:23:53;;;;;;;3.05;0.70;;;24.60;90.50;;;;;;4896786;29;20039;-71
2022/08/28 06:26:21;;;;;;;2.10;1.00;;;24.40;90.90;;;;;;4896426;29;20032;-68
2022/08/28 06:28:49;;;;;;;6.07;0.60;;;24.60;90.10;;;;;;4897033;29;20028;-69
2022/08/28 06:31:16;;;;;;;4.50;1.42;;;24.40;90.40;;;;;;4896438;29;20363;-68
2022/08/28 06:33:44;;;;;;;2.00;0.60;;;23.40;91.20;;;;;;4896196;29;20474;-68
2022/08/28 06:36:12;;;;;;;1.95;0.80;;;22.40;92.90;;;;;;4896256;29;20028;-68
2022/08/28 06:38:45;;;;;;;5.75;0.82;;;21.70;93.80;;;;;;4896743;29;20165;-71
2022/08/28 06:41:14;;;;;;;3.85;0.88;;;21.10;94.60;;;;;;4896207;29;20025;-70
2022/08/28 06:43:42;;;;;;;5.95;0.88;;;20.60;95.80;;;;;;4896515;29;20048;-69
2022/08/28 06:46:09;;;;;;;5.63;0.93;;;20.30;96.30;;;;;;4896522;29;20023;-70
2022/08/28 06:48:37;;;;;;;2.60;0.90;;;20.00;96.80;;;;;;4896712;29;20033;-70
2022/08/28 06:51:08;;;;;;;4.85;0.70;;;19.60;97.70;;;;;;4896681;29;20438;-70
2022/08/28 06:53:37;;;;;;;3.25;0.90;;;19.40;98.10;;;;;;4895321;29;20119;-69
2022/08/28 06:56:07;;;;;;;6.88;1.38;;;19.10;98.70;;;;;;4896098;29;20069;-71
2022/08/28 06:58:41;;;;;;;3.17;1.33;;;19.00;99.20;;;;;;4896121;29;20134;-71
2022/08/28 07:01:21;;;;;;;4.32;0.88;;;18.90;99.60;;;;;;4896703;29;20028;-70
2022/08/28 07:03:50;;;;;;;5.97;0.80;;;18.80;99.90;;;;;;4896542;29;20064;-71
2022/08/28 07:06:17;;;;;;;2.03;0.80;;;18.70;99.90;;;;;;4896294;29;20024;-72
2022/08/28 07:08:45;;;;;;;1.85;1.13;;;18.70;99.90;;;;;;4896229;29;20131;-71
2022/08/28 07:11:20;;;;;;;6.75;1.10;;;18.60;99.90;;;;;;4896154;29;20470;-68
2022/08/28 07:13:48;;;;;;;4.05;0.75;;;18.50;99.90;;;;;;4896369;29;20123;-67
2022/08/28 07:16:18;;;;;;;4.13;0.85;;;18.50;99.90;;;;;;4896187;29;20017;-71
2022/08/28 07:18:46;;;;;;;6.78;1.40;;;18.50;99.90;;;;;;4896516;29;20397;-72
2022/08/28 07:21:14;;;;;;;4.05;0.90;;;18.50;99.90;;;;;;4896325;29;20096;-69
2022/08/28 07:23:43;;;;;;;5.20;0.90;;;18.50;99.90;;;;;;4895959;29;20064;-70
2022/08/28 07:26:14;;;;;;;3.95;0.90;;;18.50;99.90;;;;;;4896159;29;20025;-70
2022/08/28 07:28:42;;;;;;;2.95;0.80;;;18.40;99.90;;;;;;4896671;29;20406;-66
2022/08/28 07:31:13;;;;;;;7.13;1.40;;;18.40;99.90;;;;;;4910842;29;20029;-69
2022/08/28 07:33:41;;;;;;;2.75;0.93;;;18.30;99.90;;;;;;4896413;29;20024;-69
2022/08/28 07:36:12;;;;;;;2.90;0.90;;;18.20;99.90;;;;;;4891899;29;20457;-72
2022/08/28 07:38:40;;;;;;;2.65;0.80;;;18.30;99.90;;;;;;4877716;29;20028;-70
2022/08/28 07:41:18;;;;;;;5.43;1.08;;;18.30;99.90;;;;;;4877292;29;20100;-70
2022/08/28 07:46:32;;;;;;;6.55;1.42;;;18.20;99.90;;;;;;4887306;29;20035;-69
2022/08/28 07:49:00;;;;;;;4.97;1.52;;;18.10;99.90;;;;;;4896165;29;20020;-69
2022/08/28 07:51:28;;;;;;;6.35;1.50;;;18.00;99.90;;;;;;4910658;29;20470;-70
2022/08/28 07:53:56;;;;;;;7.13;2.58;;;18.00;99.90;;;;;;4898557;29;20040;-68
2022/08/28 07:56:26;;;;;;;6.88;1.60;;;17.90;99.90;;;;;;4899463;29;20080;-67
2022/08/28 07:58:55;;;;;;;6.30;1.38;;;17.90;99.90;;;;;;4899409;29;20049;-68
2022/08/28 08:01:22;;;;;;;8.35;2.95;;;17.80;99.90;;;;;;4898866;29;20048;-67
2022/08/28 08:03:50;;;;;;;3.00;1.67;;;17.70;99.90;;;;;;4899476;29;20393;-68
2022/08/28 08:06:17;;;;;;;5.68;1.50;;;17.70;99.90;;;;;;4898997;29;20024;-68
2022/08/28 08:08:45;;;;;;;4.95;1.25;;;17.60;99.90;;;;;;4899477;29;20033;-67
2022/08/28 08:11:17;;;;;;;6.22;1.83;;;17.60;99.90;;;;;;4899284;29;20067;-68
2022/08/28 08:13:46;;;;;;;3.58;1.10;;;17.50;99.90;;;;;;4899239;29;20052;-67
2022/08/28 08:16:18;;;;;;;6.03;2.55;;;17.50;99.90;;;;;;4898974;29;20084;-67
2022/08/28 08:18:47;;;;;;;4.37;1.10;;;17.50;99.90;;;;;;4899549;29;20079;-68
2022/08/28 08:21:17;;;;;;;8.20;2.20;;;17.40;99.90;;;;;;4898981;29;20032;-70
2022/08/28 08:23:45;;;;;;;5.35;2.20;;;17.40;99.90;;;;;;4898843;29;20046;-68
2022/08/28 08:26:16;;;;;;;6.57;1.45;;;17.30;99.90;;;;;;4898921;29;20025;-71
2022/08/28 08:28:44;;;;;;;6.22;3.13;;;17.20;99.90;;;;;;4899016;29;20115;-68
2022/08/28 08:31:25;;;;;;;7.15;2.63;;;17.20;99.90;;;;;;4898853;29;20024;-68
2022/08/28 08:33:56;;;;;;;4.68;1.77;;;17.20;99.90;;;;;;4898864;29;20429;-69
2022/08/28 08:36:26;;;;;;;10.38;2.05;;;17.20;99.90;;;;;;4898832;29;20028;-71
2022/08/28 08:38:54;;;;;;;6.10;1.52;;;17.20;99.90;;;;;;4898784;29;20025;-70
2022/08/28 08:41:27;;;;;;;7.88;1.50;;;17.10;99.90;;;;;;4898769;29;20032;-71
2022/08/28 08:44:04;;;;;;;4.40;1.80;;;17.20;99.90;;;;;;4898866;29;20481;-71
2022/08/28 08:46:56;;;;;;;6.47;2.13;;;17.20;99.90;;;;;;4898452;29;20107;-70
2022/08/28 08:49:29;;;;;;;5.72;2.13;;;17.10;99.90;;;;;;4898458;29;20033;-69
2022/08/28 08:52:27;;;;;;;6.97;2.15;;;17.10;99.90;;;;;;4898713;29;20439;-67
2022/08/28 08:55:18;;;;;;;4.13;1.90;;;17.10;99.90;;;;;;4898470;29;20024;-68
2022/08/28 08:57:47;;;;;;;7.38;1.58;;;17.10;99.90;;;;;;4897958;29;20023;-68
2022/08/28 09:00:15;;;;;;;4.97;1.40;;;17.00;99.90;;;;;;4898168;29;20028;-68
2022/08/28 09:03:12;;;;;;;4.72;1.70;;;17.00;99.90;;;;;;4898234;29;20512;-68
2022/08/28 09:05:52;;;;;;;5.78;1.98;;;17.00;99.90;;;;;;4897181;29;20032;-68
2022/08/28 09:08:31;;;;;;;8.07;1.60;;;17.00;99.90;;;;;;4898458;29;20029;-68
2022/08/28 09:11:27;;;;;;;5.93;1.65;;;17.00;99.90;;;;;;4898082;29;20036;-70
2022/08/28 09:14:06;;;;;;;4.65;2.03;;;17.00;99.90;;;;;;4898198;29;20040;-68
2022/08/28 09:16:42;;;;;;;7.28;1.65;;;17.00;99.90;;;;;;4897700;29;20021;-71
2022/08/28 09:19:18;;;;;;;3.67;1.63;;;16.90;99.90;;;;;;4898059;29;20541;-69
2022/08/28 09:21:47;;;;;;;5.78;2.90;;;16.90;99.90;;;;;;4898183;29;20371;-67
2022/08/28 09:24:31;;;;;;;10.50;1.92;;;16.90;99.90;;;;;;4897883;29;20092;-68
2022/08/28 09:27:02;;;;;;;8.57;1.73;;;16.90;99.90;;;;;;4897167;29;20045;-68
2022/08/28 09:29:34;;;;;;;7.20;2.08;;;16.90;99.90;;;;;;4897706;29;20067;-67
2022/08/28 09:32:25;;;;;;;8.63;2.25;;;16.90;99.90;;;;;;4897735;29;20040;-67
2022/08/28 09:35:07;;;;;;;12.43;2.38;;;16.80;99.90;;;;;;4897635;29;20104;-68
2022/08/28 09:37:36;;;;;;;8.82;3.22;;;16.90;99.90;;;;;;4897270;29;20052;-67
2022/08/28 09:43:26;;;;;;;9.95;2.83;;;16.90;99.90;;;;;;4896380;29;20048;-68
2022/08/28 09:45:59;;;;;;;10.07;2.83;;;16.80;99.90;;;;;;4897399;29;20021;-69
2022/08/28 09:48:36;;;;;;;10.82;2.10;;;16.80;99.90;;;;;;4897129;29;20031;-68
2022/08/28 09:51:08;;;;;;;10.93;2.63;;;16.80;99.90;;;;;;4897283;29;20028;-69
2022/08/28 09:53:42;;;;;;;11.35;2.55;;;16.80;99.90;;;;;;4897287;29;20024;-70
2022/08/28 09:56:15;;;;;;;14.57;3.00;;;16.70;99.90;;;;;;4897010;29;20477;-67
2022/08/28 09:58:53;;;;;;;6.32;1.83;;;16.70;99.90;;;;;;4896968;29;20056;-69
2022/08/28 10:01:29;;;;;;;13.57;2.90;;;16.70;99.90;;;;;;4897435;29;20044;-68
2022/08/28 10:04:18;;;;;;;9.57;2.55;;;16.70;99.90;;;;;;4897420;29;20051;-68
2022/08/28 10:07:08;;;;;;;9.57;2.85;;;16.70;99.90;;;;;;4896978;29;20024;-68
2022/08/28 10:09:36;;;;;;;10.18;2.40;;;16.70;99.90;;;;;;4896785;29;20070;-70
2022/08/28 10:12:36;;;;;;;9.15;2.50;;;16.70;99.90;;;;;;4896993;29;20028;-71
2022/08/28 10:15:09;;;;;;;10.63;2.50;;;16.60;99.90;;;;;;4895706;29;20030;-71
2022/08/28 10:17:47;;;;;;;17.67;3.38;;;16.60;99.90;;;;;;4897005;29;20104;-68
2022/08/28 10:20:17;;;;;;;16.00;3.45;;;16.60;99.90;;;;;;4896914;29;20032;-71
2022/08/28 10:22:58;;;;;;;11.00;3.30;;;16.60;99.90;;;;;;4896526;29;20092;-68
2022/08/28 10:25:29;;;;;;;13.52;3.50;;;16.60;99.90;;;;;;4895876;29;20028;-68
2022/08/28 10:28:15;;;;;;;13.93;3.53;;;16.60;99.90;;;;;;4895023;29;20025;-71
2022/08/28 10:31:21;;;;;;;9.52;2.05;;;16.60;99.90;;;;;;4896743;29;20159;-68
2022/08/28 10:34:04;;;;;;;10.30;2.53;;;16.60;99.90;;;;;;4896970;29;20033;-71
2022/08/28 10:36:34;;;;;;;14.73;2.75;;;16.60;99.90;;;;;;4896789;29;20076;-69
2022/08/28 10:39:10;;;;;;;14.18;3.50;;;16.60;99.90;;;;;;4896594;29;20333;-69
2022/08/28 10:41:57;;;;;;;12.52;2.17;;;16.50;99.90;;;;;;4896939;29;20045;-69
2022/08/28 10:44:34;;;;;;;10.13;2.55;;;16.50;99.90;;;;;;4896673;29;20039;-68
2022/08/28 10:47:04;;;;;;;13.50;2.15;;;16.50;99.90;;;;;;4896294;29;20035;-68
2022/08/28 10:49:44;;;;;;;10.23;2.10;;;16.50;99.90;;;;;;4896106;29;20020;-69
2022/08/28 10:52:27;;;;;;;10.55;2.40;;;16.50;99.90;;;;;;4896977;29;20084;-68
2022/08/28 10:55:13;;;;;;;9.85;2.20;;;16.50;99.90;;;;;;4896964;29;20099;-68
2022/08/28 10:57:50;;;;;;;13.85;2.53;;;16.50;99.90;;;;;;4896371;29;20021;-69
2022/08/28 11:00:21;;;;;;;8.30;2.83;;;16.40;99.90;;;;;;4896823;29;20027;-70
2022/08/28 11:02:53;;;;;;;12.68;2.13;;;16.50;99.90;;;;;;4896560;29;20123;-70
2022/08/28 11:05:23;;;;;;;14.05;2.22;;;16.40;99.90;;;;;;4896473;29;20028;-67
2022/08/28 11:08:02;;;;;;;11.35;2.80;;;16.40;99.90;;;;;;4896694;29;20446;-68
2022/08/28 11:10:35;;;;;;;11.57;2.65;;;16.40;99.90;;;;;;4896456;29;20029;-69
2022/08/28 11:13:05;;;;;;;14.43;3.75;;;16.40;99.90;;;;;;4896559;29;20033;-71
2022/08/28 11:15:32;;;;;;;10.93;2.17;;;16.40;99.90;;;;;;4896307;29;20108;-67
2022/08/28 11:18:08;;;;;;;5.85;1.95;;;16.40;99.90;;;;;;4896413;29;20052;-68
2022/08/28 11:20:38;;;;;;;11.43;1.73;;;16.40;99.90;;;;;;4896214;29;20028;-66
2022/08/28 11:23:20;;;;;;;16.40;2.53;;;16.30;99.90;;;;;;4896377;29;20039;-68
2022/08/28 11:25:50;;;;;;;7.53;1.92;;;16.30;99.90;;;;;;4896192;29;20020;-67
2022/08/28 11:28:24;;;;;;;12.38;2.10;;;16.30;99.90;;;;;;4898355;29;20028;-68
2022/08/28 11:31:06;;;;;;;10.48;2.53;;;16.20;99.90;;;;;;4900287;29;20025;-70
2022/08/28 11:33:54;;;;;;;15.85;2.53;;;16.30;99.90;;;;;;4899814;29;20498;-68
2022/08/28 11:36:21;;;;;;;6.75;2.67;;;16.20;99.90;;;;;;4899917;29;20457;-68
2022/08/28 11:38:54;;;;;;;17.80;3.03;;;16.20;99.90;;;;;;4900260;29;20112;-69
2022/08/28 11:41:35;;;;;;;18.08;3.63;;;16.20;99.90;;;;;;4899979;29;20033;-68
2022/08/28 11:44:11;;;;;;;11.43;2.88;;;16.10;99.90;;;;;;4899770;29;20088;-67
2022/08/28 11:46:50;;;;;;;11.70;2.63;;;16.20;99.90;;;;;;4899533;29;20116;-69
2022/08/28 11:49:29;;;;;;;10.13;2.47;;;16.20;99.90;;;;;;4913986;29;20029;-68
2022/08/28 11:52:00;;;;;;;12.23;2.53;;;16.10;99.90;;;;;;4899323;29;20056;-69
2022/08/28 11:54:45;;;;;;;11.25;2.05;;;16.10;99.90;;;;;;4899317;29;20020;-71
2022/08/28 11:57:26;;;;;;;10.65;2.08;;;16.10;99.90;;;;;;4899222;29;20029;-72
2022/08/28 12:00:11;;;;;;;11.45;2.33;;;16.10;99.90;;;;;;4899512;29;20048;-72
2022/08/28 12:02:44;;;;;;;11.93;2.45;;;16.10;99.90;;;;;;4899178;29;20139;-71
2022/08/28 12:05:17;;;;;;;15.35;2.40;;;16.10;99.90;;;;;;4899335;29;20024;-70
2022/08/28 12:07:47;;;;;;;12.63;1.92;;;16.10;99.90;;;;;;4899376;29;20028;-69
2022/08/28 12:10:23;;;;;;;12.50;1.63;;;16.10;99.90;;;;;;4899272;29;20032;-72
2022/08/28 12:12:52;;;;;;;11.63;1.92;;;16.10;99.90;;;;;;4898979;29;20032;-69
2022/08/28 12:15:28;;;;;;;11.02;1.67;;;16.10;99.90;;;;;;4898650;29;20497;-69
2022/08/28 12:18:03;;;;;;;12.90;2.42;;;16.00;99.90;;;;;;4899164;29;20044;-68
2022/08/28 12:20:39;;;;;;;11.52;2.25;;;16.00;99.90;;;;;;4899148;29;20029;-68
2022/08/28 12:23:39;;;;;;;14.50;3.47;;;16.00;99.90;;;;;;4899011;29;20088;-68
2022/08/28 12:26:14;;;;;;;15.02;2.83;;;16.00;99.90;;;;;;4898730;29;20109;-72
2022/08/28 12:28:47;;;;;;;9.70;2.15;;;16.00;99.90;;;;;;4898954;29;20035;-70
2022/08/28 12:34:49;;;;;;;14.95;2.33;;;16.00;99.90;;;;;;4898552;29;20076;-70
2022/08/28 12:37:28;;;;;;;12.07;2.10;;;16.00;99.90;;;;;;4898473;29;20025;-71
2022/08/28 12:40:19;;;;;;;11.57;3.08;;;15.90;99.90;;;;;;4897180;29;20032;-70
2022/08/28 12:42:57;;;;;;;6.45;1.92;;;15.90;99.90;;;;;;4898820;29;20029;-69
2022/08/28 12:45:39;;;;;;;12.20;2.03;;;15.90;99.90;;;;;;4898723;29;20031;-69
2022/08/28 12:48:30;;;;;;;11.13;2.67;;;15.90;99.90;;;;;;4898574;29;20028;-71
2022/08/28 12:51:13;;;;;;;10.63;2.00;;;15.90;99.90;;;;;;4898642;29;20028;-68
2022/08/28 12:53:50;;;;;;;;;;;15.90;99.90;;;;;;4899165;29;20021;-68
2022/08/28 12:56:19;;;;;;;11.07;2.83;;;15.80;99.90;;;;;;4898168;29;19994;-70
2022/08/28 12:58:47;;;;;;;6.93;1.67;;;15.80;99.90;;;;;;4897999;29;20150;-70
2022/08/28 13:01:14;;;;;;;9.63;2.17;;;15.70;99.90;;;;;;4898363;29;20043;-69
2022/08/28 13:04:10;;;;;;;12.00;2.63;;;15.70;99.90;;;;;;4898101;29;20036;-67
2022/08/28 13:06:38;;;;;;;12.05;2.88;;;15.70;99.90;;;;;;4897544;29;20044;-71
2022/08/28 13:09:26;;;;;;;8.77;2.58;;;15.70;99.90;;;;;;4898127;29;20116;-72
2022/08/28 13:11:54;;;;;;;10.65;2.58;;;15.70;99.90;;;;;;4898239;29;20032;-68
2022/08/28 13:14:53;;;;;;;9.32;2.28;;;15.70;99.90;;;;;;4898553;29;20031;-70
2022/08/28 13:17:45;;;;;;;10.43;1.83;;;15.70;99.90;;;;;;4896490;29;20032;-68
2022/08/28 13:20:35;;;;;;;7.70;2.75;;;15.60;99.90;;;;;;4897743;29;20029;-69
2022/08/28 13:23:03;;;;;;;12.50;2.10;;;15.60;99.90;;;;;;4897770;29;20029;-69
2022/08/28 13:25:37;;;;;;;15.18;3.20;;;15.60;99.90;;;;;;4897659;29;20418;-69